Time;durP1;ratioP1;P1;durP2;ratioP2;P2;SDS_P1;SDS_P2;PMS_P1;PMS_P2;Temp;Humidity;BMP_temperature;BMP_pressure;BME280_temperature;BME280_humidity;BME280_pressure;Samples;Min_cycle;Max_cycle;Signal;HPM_P1;HPM_P2
2023/05/16 00:00:52;;;;;;;0.10;0.10;;;;;;;;;;5070373;28;20475;-82
2023/05/16 00:03:18;;;;;;;0.10;0.10;;;;;;;;;;5063183;28;20032;-76
2023/05/16 00:05:43;;;;;;;0.10;0.10;;;;;;;;;;5046863;28;20383;-76
2023/05/16 00:08:08;;;;;;;0.10;0.10;;;;;;;;;;5063729;28;20029;-76
2023/05/16 00:10:34;;;;;;;0.10;0.10;;;;;;;;;;5063137;28;20498;-75
2023/05/16 00:13:00;;;;;;;0.10;0.10;;;;;;;;;;5064723;28;20036;-76
2023/05/16 00:15:28;;;;;;;0.10;0.10;;;;;;;;;;5062683;28;20480;-74
2023/05/16 00:17:57;;;;;;;0.10;0.10;;;;;;;;;;5046687;28;20066;-76
2023/05/16 00:20:23;;;;;;;0.10;0.10;;;;;;;;;;5074006;28;20036;-76
2023/05/16 00:22:49;;;;;;;0.80;0.15;;;;;;;;;;5074254;28;20042;-76
2023/05/16 00:25:14;;;;;;;0.10;0.10;;;;;;;;;;5073591;28;20115;-77
2023/05/16 00:27:40;;;;;;;0.10;0.10;;;;;;;;;;5066445;28;20118;-76
2023/05/16 00:30:08;;;;;;;0.10;0.10;;;;;;;;;;5057494;28;20033;-80
2023/05/16 00:32:33;;;;;;;0.10;0.10;;;;;;;;;;5061902;28;20043;-79
2023/05/16 00:34:59;;;;;;;0.20;0.20;;;;;;;;;;5073287;28;20036;-80
2023/05/16 00:37:25;;;;;;;0.20;0.20;;;;;;;;;;5073743;28;20115;-84
2023/05/16 00:39:50;;;;;;;0.10;0.10;;;;;;;;;;5055081;28;20036;-90
2023/05/16 00:42:18;;;;;;;0.10;0.10;;;;;;;;;;5073821;28;20429;-86
2023/05/16 00:44:43;;;;;;;0.10;0.10;;;;;;;;;;5056003;28;20376;-78
2023/05/16 00:47:08;;;;;;;1.35;1.30;;;;;;;;;;5073598;28;20039;-81
2023/05/16 00:49:34;;;;;;;0.10;0.10;;;;;;;;;;5073646;28;20048;-85
2023/05/16 00:51:59;;;;;;;0.10;0.10;;;;;;;;;;5078183;28;20035;-84
2023/05/16 00:54:28;;;;;;;0.10;0.10;;;;;;;;;;5089160;28;20044;-86
2023/05/16 00:56:53;;;;;;;0.10;0.10;;;;;;;;;;5089577;28;20028;-84
2023/05/16 00:59:19;;;;;;;0.10;0.10;;;;;;;;;;5078374;28;20033;-81
2023/05/16 01:01:45;;;;;;;0.20;0.20;;;;;;;;;;5073387;28;20059;-88
2023/05/16 01:04:11;;;;;;;0.10;0.10;;;;;;;;;;5069587;28;20082;-83
2023/05/16 01:06:36;;;;;;;0.10;0.10;;;;;;;;;;5073429;28;20483;-83
2023/05/16 01:09:04;;;;;;;0.10;0.10;;;;;;;;;;5055426;28;20071;-82
2023/05/16 01:11:45;;;;;;;0.10;0.10;;;;;;;;;;5055512;28;20052;-83
2023/05/16 01:14:16;;;;;;;0.10;0.10;;;;;;;;;;5073214;28;20116;-86
2023/05/16 01:16:45;;;;;;;0.10;0.10;;;;;;;;;;5054587;28;20448;-83
2023/05/16 01:19:11;;;;;;;0.10;0.10;;;;;;;;;;5055313;28;20029;-75
2023/05/16 01:21:57;;;;;;;0.10;0.10;;;;;;;;;;5073209;28;20085;-76
2023/05/16 01:24:31;;;;;;;0.10;0.10;;;;;;;;;;5055951;28;20097;-76
2023/05/16 01:26:58;;;;;;;0.10;0.10;;;;;;;;;;5073235;28;20498;-77
2023/05/16 01:29:23;;;;;;;0.10;0.10;;;;;;;;;;5072457;28;20063;-76
2023/05/16 01:31:49;;;;;;;0.10;0.10;;;;;;;;;;5054088;28;20432;-76
2023/05/16 01:34:14;;;;;;;0.10;0.10;;;;;;;;;;5070998;28;20039;-76
2023/05/16 01:36:40;;;;;;;0.10;0.10;;;;;;;;;;5070701;28;20112;-77
2023/05/16 01:39:06;;;;;;;0.10;0.10;;;;;;;;;;5070991;28;20486;-77
2023/05/16 01:41:49;;;;;;;0.10;0.10;;;;;;;;;;5071066;28;20464;-79
2023/05/16 01:44:34;;;;;;;0.10;0.10;;;;;;;;;;5071110;28;20025;-79
2023/05/16 01:47:01;;;;;;;0.10;0.10;;;;;;;;;;5052404;28;20561;-81
2023/05/16 01:49:26;;;;;;;0.10;0.10;;;;;;;;;;5053669;28;20146;-82
2023/05/16 01:52:00;;;;;;;0.10;0.10;;;;;;;;;;5054824;28;20390;-82
2023/05/16 01:54:30;;;;;;;0.10;0.10;;;;;;;;;;5072659;28;20048;-81
2023/05/16 01:56:58;;;;;;;0.10;0.10;;;;;;;;;;5072585;28;20028;-80
2023/05/16 01:59:32;;;;;;;0.10;0.10;;;;;;;;;;5054462;28;20085;-81
2023/05/16 02:02:00;;;;;;;0.10;0.10;;;;;;;;;;5073003;28;20029;-81
2023/05/16 02:04:25;;;;;;;0.10;0.10;;;;;;;;;;5072648;28;20029;-80
2023/05/16 02:06:51;;;;;;;0.10;0.10;;;;;;;;;;5054395;28;20074;-80
2023/05/16 02:09:16;;;;;;;0.10;0.10;;;;;;;;;;5072294;28;20036;-81
2023/05/16 02:11:42;;;;;;;0.10;0.10;;;;;;;;;;5072488;28;20032;-81
2023/05/16 02:14:08;;;;;;;0.10;0.10;;;;;;;;;;5054588;28;20040;-81
2023/05/16 02:16:33;;;;;;;0.20;0.20;;;;;;;;;;5054622;28;20028;-81
2023/05/16 02:18:59;;;;;;;0.30;0.22;;;;;;;;;;5072101;28;20506;-81
2023/05/16 02:21:24;;;;;;;0.17;0.17;;;;;;;;;;5076251;28;20057;-79
2023/05/16 02:23:49;;;;;;;0.10;0.10;;;;;;;;;;5073516;28;20143;-81
2023/05/16 02:26:15;;;;;;;0.10;0.10;;;;;;;;;;5074185;28;20475;-81
2023/05/16 02:28:40;;;;;;;0.10;0.10;;;;;;;;;;5093238;28;20032;-82
2023/05/16 02:31:06;;;;;;;0.10;0.10;;;;;;;;;;5096098;28;20029;-86
2023/05/16 02:33:33;;;;;;;0.10;0.10;;;;;;;;;;5087626;28;20475;-82
2023/05/16 02:35:58;;;;;;;0.10;0.10;;;;;;;;;;5068720;28;20020;-82
2023/05/16 02:38:24;;;;;;;0.10;0.10;;;;;;;;;;5075073;28;20509;-82
2023/05/16 02:40:50;;;;;;;0.13;0.13;;;;;;;;;;5075847;28;20035;-83
2023/05/16 02:43:15;;;;;;;0.10;0.10;;;;;;;;;;5075650;28;20032;-83
2023/05/16 02:45:41;;;;;;;0.10;0.10;;;;;;;;;;5057711;28;20036;-82
2023/05/16 02:48:06;;;;;;;0.10;0.10;;;;;;;;;;5075560;28;20051;-83
2023/05/16 02:50:33;;;;;;;0.10;0.10;;;;;;;;;;5075724;28;20090;-84
2023/05/16 02:53:01;;;;;;;0.10;0.10;;;;;;;;;;5075353;28;20037;-84
2023/05/16 02:55:27;;;;;;;0.10;0.10;;;;;;;;;;5075493;28;20056;-85
2023/05/16 02:57:52;;;;;;;0.10;0.10;;;;;;;;;;5075741;28;20068;-83
2023/05/16 03:00:18;;;;;;;0.10;0.10;;;;;;;;;;5057617;28;20028;-85
2023/05/16 03:02:44;;;;;;;0.10;0.10;;;;;;;;;;5059891;28;20028;-79
2023/05/16 03:05:10;;;;;;;0.20;0.20;;;;;;;;;;5070752;28;20063;-80
2023/05/16 03:07:36;;;;;;;0.10;0.10;;;;;;;;;;5071252;28;20041;-80
2023/05/16 03:10:04;;;;;;;0.10;0.10;;;;;;;;;;5052947;28;20441;-78
2023/05/16 03:12:29;;;;;;;0.10;0.10;;;;;;;;;;5076239;28;20021;-79
2023/05/16 03:14:55;;;;;;;0.10;0.10;;;;;;;;;;5081011;28;20041;-78
2023/05/16 03:17:21;;;;;;;0.10;0.10;;;;;;;;;;5067797;28;20028;-76
2023/05/16 03:19:46;;;;;;;0.10;0.10;;;;;;;;;;5053047;28;20043;-79
2023/05/16 03:22:12;;;;;;;0.10;0.10;;;;;;;;;;5050888;28;20557;-76
2023/05/16 03:24:41;;;;;;;0.20;0.20;;;;;;;;;;5070952;28;20441;-76
2023/05/16 03:27:09;;;;;;;0.10;0.10;;;;;;;;;;5052912;28;20068;-77
2023/05/16 03:29:35;;;;;;;0.10;0.10;;;;;;;;;;5070983;28;20056;-77
2023/05/16 03:32:00;;;;;;;0.10;0.10;;;;;;;;;;5072726;28;20043;-77
2023/05/16 03:34:27;;;;;;;0.10;0.10;;;;;;;;;;5069927;28;20056;-79
2023/05/16 03:36:53;;;;;;;0.10;0.10;;;;;;;;;;5068121;28;20046;-78
2023/05/16 03:39:18;;;;;;;0.10;0.10;;;;;;;;;;5090576;28;20671;-78
2023/05/16 03:41:44;;;;;;;0.10;0.10;;;;;;;;;;5076789;28;20508;-78
2023/05/16 03:44:09;;;;;;;0.10;0.10;;;;;;;;;;5069661;28;20071;-78
2023/05/16 03:46:35;;;;;;;0.10;0.10;;;;;;;;;;5070499;28;20043;-78
2023/05/16 03:49:00;;;;;;;0.10;0.10;;;;;;;;;;5070500;28;20040;-78
2023/05/16 03:51:26;;;;;;;0.13;0.13;;;;;;;;;;5069741;28;20024;-78
2023/05/16 03:53:52;;;;;;;0.10;0.10;;;;;;;;;;5052123;28;20059;-78
2023/05/16 03:56:17;;;;;;;0.17;0.17;;;;;;;;;;5069782;28;20076;-78
2023/05/16 03:58:43;;;;;;;0.15;0.15;;;;;;;;;;5071098;28;20036;-78
2023/05/16 04:01:08;;;;;;;0.10;0.10;;;;;;;;;;5068682;28;20178;-78
2023/05/16 04:03:34;;;;;;;0.10;0.10;;;;;;;;;;5068386;28;20036;-77
2023/05/16 04:06:00;;;;;;;0.10;0.10;;;;;;;;;;5069792;28;20094;-79
2023/05/16 04:08:25;;;;;;;0.10;0.10;;;;;;;;;;5069837;28;20021;-77
2023/05/16 04:10:51;;;;;;;0.10;0.10;;;;;;;;;;5069571;28;20032;-77
2023/05/16 04:13:16;;;;;;;0.10;0.10;;;;;;;;;;5070022;28;20470;-78
2023/05/16 04:15:42;;;;;;;0.68;0.68;;;;;;;;;;5051700;28;20037;-77
2023/05/16 04:18:08;;;;;;;0.10;0.10;;;;;;;;;;5069433;28;20480;-76
2023/05/16 04:20:34;;;;;;;0.10;0.10;;;;;;;;;;5071898;28;20056;-77
2023/05/16 04:22:59;;;;;;;0.17;0.17;;;;;;;;;;5069199;28;20029;-77
2023/05/16 04:25:25;;;;;;;0.10;0.10;;;;;;;;;;5069634;28;20493;-81
2023/05/16 04:27:51;;;;;;;0.10;0.10;;;;;;;;;;5057654;28;20128;-79
2023/05/16 04:30:16;;;;;;;0.10;0.10;;;;;;;;;;5058009;28;20120;-78
2023/05/16 04:32:42;;;;;;;0.10;0.10;;;;;;;;;;5069978;28;20123;-78
2023/05/16 04:35:08;;;;;;;0.10;0.10;;;;;;;;;;5069526;28;20119;-79
2023/05/16 04:37:34;;;;;;;0.20;0.20;;;;;;;;;;5070112;28;20063;-78
2023/05/16 04:40:00;;;;;;;0.10;0.10;;;;;;;;;;5069412;28;20056;-79
2023/05/16 04:42:25;;;;;;;0.10;0.10;;;;;;;;;;5051798;28;20063;-78
2023/05/16 04:44:51;;;;;;;0.10;0.10;;;;;;;;;;5069897;28;20044;-79
2023/05/16 04:47:16;;;;;;;0.10;0.10;;;;;;;;;;5071023;28;20044;-78
2023/05/16 04:49:42;;;;;;;0.10;0.10;;;;;;;;;;5069668;28;20040;-79
2023/05/16 04:52:08;;;;;;;0.10;0.10;;;;;;;;;;5068465;28;20038;-81
2023/05/16 04:54:33;;;;;;;0.10;0.10;;;;;;;;;;5051746;28;20097;-79
2023/05/16 04:56:58;;;;;;;0.10;0.10;;;;;;;;;;5069053;28;20037;-78
2023/05/16 04:59:24;;;;;;;0.10;0.10;;;;;;;;;;5069486;28;20025;-80
2023/05/16 05:01:49;;;;;;;0.10;0.10;;;;;;;;;;5071633;28;20029;-79
2023/05/16 05:04:16;;;;;;;0.10;0.10;;;;;;;;;;5068991;28;20028;-79
2023/05/16 05:06:42;;;;;;;0.10;0.10;;;;;;;;;;5068681;28;20067;-79
2023/05/16 05:09:08;;;;;;;0.10;0.10;;;;;;;;;;5068275;28;20064;-79
2023/05/16 05:11:34;;;;;;;0.10;0.10;;;;;;;;;;5065374;28;20056;-80
2023/05/16 05:14:00;;;;;;;0.13;0.13;;;;;;;;;;5066170;28;20491;-80
2023/05/16 05:16:25;;;;;;;0.30;0.30;;;;;;;;;;5074499;28;20039;-80
2023/05/16 05:18:51;;;;;;;0.20;0.20;;;;;;;;;;5067680;28;20040;-72
2023/05/16 05:21:17;;;;;;;0.10;0.10;;;;;;;;;;5067020;28;20060;-73
2023/05/16 05:23:43;;;;;;;0.17;0.17;;;;;;;;;;5067023;28;20044;-72
2023/05/16 05:26:08;;;;;;;0.15;0.15;;;;;;;;;;5065894;28;20093;-71
2023/05/16 05:28:34;;;;;;;0.10;0.10;;;;;;;;;;5070347;28;20510;-72
2023/05/16 05:30:59;;;;;;;0.20;0.20;;;;;;;;;;5072613;28;20040;-73
2023/05/16 05:33:26;;;;;;;0.10;0.10;;;;;;;;;;5066581;28;20024;-72
2023/05/16 05:35:52;;;;;;;0.10;0.10;;;;;;;;;;5065975;28;20036;-72
2023/05/16 05:38:18;;;;;;;0.20;0.20;;;;;;;;;;5067677;28;20149;-72
2023/05/16 05:40:44;;;;;;;0.13;0.13;;;;;;;;;;5062093;28;20132;-72
2023/05/16 05:43:10;;;;;;;0.10;0.10;;;;;;;;;;5065434;28;20036;-70
2023/05/16 05:45:35;;;;;;;0.10;0.10;;;;;;;;;;5068768;28;20043;-71
2023/05/16 05:48:00;;;;;;;0.10;0.10;;;;;;;;;;5061083;28;20510;-71
2023/05/16 05:50:26;;;;;;;0.10;0.10;;;;;;;;;;5068184;28;20037;-71
2023/05/16 05:52:51;;;;;;;0.10;0.10;;;;;;;;;;5070624;28;20100;-71
2023/05/16 05:55:17;;;;;;;0.10;0.10;;;;;;;;;;5061176;28;20507;-70
2023/05/16 05:57:42;;;;;;;0.10;0.10;;;;;;;;;;5041323;28;20037;-70
2023/05/16 06:00:09;;;;;;;0.10;0.10;;;;;;;;;;5058685;28;20032;-71
2023/05/16 06:02:34;;;;;;;0.22;0.20;;;;;;;;;;5058332;28;20321;-71
2023/05/16 06:05:00;;;;;;;2.42;0.73;;;;;;;;;;5056821;28;20029;-71
2023/05/16 06:07:25;;;;;;;0.17;0.17;;;;;;;;;;5058425;28;20119;-70
2023/05/16 06:09:51;;;;;;;0.10;0.10;;;;;;;;;;5059126;28;20028;-70
2023/05/16 06:12:16;;;;;;;0.17;0.17;;;;;;;;;;5068869;28;20044;-72
2023/05/16 06:14:42;;;;;;;0.55;0.25;;;;;;;;;;5059495;28;20041;-71
2023/05/16 06:17:07;;;;;;;0.73;0.45;;;;;;;;;;5063604;28;20032;-71
2023/05/16 06:19:32;;;;;;;0.50;0.50;;;;;;;;;;5071999;28;20035;-71
2023/05/16 06:21:58;;;;;;;0.55;0.55;;;;;;;;;;5057032;28;20112;-72
2023/05/16 06:24:23;;;;;;;4.95;0.82;;;;;;;;;;5058579;28;20078;-72
2023/05/16 06:26:49;;;;;;;0.10;0.10;;;;;;;;;;5038806;28;20086;-72
2023/05/16 06:29:15;;;;;;;0.20;0.20;;;;;;;;;;5040506;28;20558;-72
2023/05/16 06:31:41;;;;;;;6.95;0.73;;;;;;;;;;5069125;28;20499;-73
2023/05/16 06:34:06;;;;;;;0.75;0.47;;;;;;;;;;5044191;28;20028;-73
2023/05/16 06:36:32;;;;;;;4.03;2.08;;;;;;;;;;5069446;28;20347;-72
2023/05/16 06:38:57;;;;;;;1.00;0.55;;;;;;;;;;5039201;28;20363;-72
2023/05/16 06:41:23;;;;;;;0.88;0.60;;;;;;;;;;5056773;28;20092;-72
2023/05/16 06:43:48;;;;;;;0.73;0.50;;;;;;;;;;5058027;28;20033;-72
2023/05/16 06:46:13;;;;;;;0.10;0.10;;;;;;;;;;5058265;28;20065;-72
2023/05/16 06:48:39;;;;;;;1.13;0.45;;;;;;;;;;5056651;28;20380;-72
2023/05/16 06:51:04;;;;;;;0.45;0.45;;;;;;;;;;5073235;28;20040;-72
2023/05/16 06:53:30;;;;;;;0.10;0.10;;;;;;;;;;5039302;28;20063;-71
2023/05/16 06:55:55;;;;;;;0.10;0.10;;;;;;;;;;5063765;28;20025;-72
2023/05/16 06:58:20;;;;;;;0.10;0.10;;;;;;;;;;5065382;28;20051;-71
2023/05/16 07:00:47;;;;;;;0.10;0.10;;;;;;;;;;5039232;28;20375;-71
2023/05/16 07:03:13;;;;;;;0.10;0.10;;;;;;;;;;5056092;28;20029;-72
2023/05/16 07:05:39;;;;;;;0.10;0.10;;;;;;;;;;5065181;28;20035;-72
2023/05/16 07:08:04;;;;;;;0.10;0.10;;;;;;;;;;5066254;28;20446;-73
2023/05/16 07:10:30;;;;;;;0.10;0.10;;;;;;;;;;5050133;28;20119;-71
2023/05/16 07:12:55;;;;;;;0.10;0.10;;;;;;;;;;5047677;28;20410;-72
2023/05/16 07:15:20;;;;;;;0.10;0.10;;;;;;;;;;5050149;28;20120;-73
2023/05/16 07:17:46;;;;;;;0.10;0.10;;;;;;;;;;5069575;28;20032;-73
2023/05/16 07:20:13;;;;;;;0.10;0.10;;;;;;;;;;5070756;28;20031;-72
2023/05/16 07:22:39;;;;;;;0.10;0.10;;;;;;;;;;5070724;28;20425;-70
2023/05/16 07:25:05;;;;;;;0.10;0.10;;;;;;;;;;5070082;28;20039;-71
2023/05/16 07:27:31;;;;;;;0.10;0.10;;;;;;;;;;5070153;28;20072;-72
2023/05/16 07:29:56;;;;;;;0.10;0.10;;;;;;;;;;5068760;28;20036;-72
2023/05/16 07:32:22;;;;;;;0.10;0.10;;;;;;;;;;5066920;28;20066;-72
2023/05/16 07:34:47;;;;;;;0.10;0.10;;;;;;;;;;5070312;28;20527;-72
2023/05/16 07:37:13;;;;;;;0.20;0.20;;;;;;;;;;5069917;28;20099;-73
2023/05/16 07:39:39;;;;;;;0.10;0.10;;;;;;;;;;5070984;28;20324;-73
2023/05/16 07:42:07;;;;;;;0.20;0.20;;;;;;;;;;5072589;28;20387;-77
2023/05/16 07:44:33;;;;;;;0.47;0.47;;;;;;;;;;5078879;28;20056;-77
2023/05/16 07:46:58;;;;;;;0.10;0.10;;;;;;;;;;5066263;28;20036;-77
2023/05/16 07:49:24;;;;;;;0.10;0.10;;;;;;;;;;5070715;28;20089;-77
2023/05/16 07:51:50;;;;;;;0.10;0.10;;;;;;;;;;5070640;28;20037;-77
2023/05/16 07:54:15;;;;;;;0.20;0.20;;;;;;;;;;5069439;28;20024;-76
2023/05/16 07:56:41;;;;;;;0.13;0.13;;;;;;;;;;5070673;28;20040;-77
2023/05/16 07:59:06;;;;;;;0.20;0.20;;;;;;;;;;5070432;28;20031;-77
2023/05/16 08:01:32;;;;;;;0.20;0.20;;;;;;;;;;5069934;28;20140;-76
2023/05/16 08:03:57;;;;;;;0.13;0.13;;;;;;;;;;5054307;28;20029;-76
2023/05/16 08:06:23;;;;;;;0.10;0.10;;;;;;;;;;5048716;28;20040;-76
2023/05/16 08:08:48;;;;;;;0.20;0.20;;;;;;;;;;5063722;28;20029;-77
2023/05/16 08:11:13;;;;;;;0.17;0.17;;;;;;;;;;5070127;28;20062;-77
2023/05/16 08:13:39;;;;;;;0.13;0.13;;;;;;;;;;5073755;28;20489;-76
2023/05/16 08:16:05;;;;;;;0.10;0.10;;;;;;;;;;5062876;28;20119;-76
2023/05/16 08:18:31;;;;;;;0.20;0.20;;;;;;;;;;5069433;28;20120;-76
2023/05/16 08:20:56;;;;;;;0.10;0.10;;;;;;;;;;5070072;28;20068;-77
2023/05/16 08:23:22;;;;;;;1.80;0.50;;;;;;;;;;5068544;28;20115;-78
2023/05/16 08:25:47;;;;;;;0.20;0.20;;;;;;;;;;5070349;28;20079;-77
2023/05/16 08:28:15;;;;;;;0.10;0.10;;;;;;;;;;5054367;28;20052;-78
2023/05/16 08:30:41;;;;;;;0.10;0.10;;;;;;;;;;5069683;28;20036;-77
2023/05/16 08:33:06;;;;;;;0.20;0.20;;;;;;;;;;5069096;28;20033;-77
2023/05/16 08:35:34;;;;;;;0.10;0.10;;;;;;;;;;5074119;28;20032;-78
2023/05/16 08:37:59;;;;;;;0.20;0.20;;;;;;;;;;5069972;28;20062;-79
2023/05/16 08:40:26;;;;;;;0.15;0.15;;;;;;;;;;5070640;28;20586;-79
2023/05/16 08:42:52;;;;;;;0.20;0.20;;;;;;;;;;5071166;28;20123;-78
2023/05/16 08:45:18;;;;;;;0.10;0.10;;;;;;;;;;5067762;28;20031;-78
2023/05/16 08:47:44;;;;;;;0.20;0.20;;;;;;;;;;5073507;28;20040;-80
2023/05/16 08:50:09;;;;;;;0.20;0.20;;;;;;;;;;5069191;28;20480;-79
2023/05/16 08:52:36;;;;;;;0.20;0.20;;;;;;;;;;5068893;28;20037;-78
2023/05/16 08:55:08;;;;;;;0.20;0.20;;;;;;;;;;5068350;28;20031;-77
2023/05/16 08:57:34;;;;;;;0.15;0.15;;;;;;;;;;5069326;28;20401;-77
2023/05/16 08:59:59;;;;;;;0.15;0.15;;;;;;;;;;5065469;28;20383;-77
2023/05/16 09:02:31;;;;;;;0.22;0.22;;;;;;;;;;5067772;28;20039;-78
2023/05/16 09:05:00;;;;;;;0.20;0.20;;;;;;;;;;5068646;28;20033;-75
2023/05/16 09:07:25;;;;;;;0.20;0.20;;;;;;;;;;5068370;28;20032;-78
2023/05/16 09:09:51;;;;;;;0.20;0.20;;;;;;;;;;5068769;28;20379;-78
2023/05/16 09:12:16;;;;;;;0.10;0.10;;;;;;;;;;5068663;28;20020;-78
2023/05/16 09:14:42;;;;;;;0.20;0.20;;;;;;;;;;5067986;28;20044;-78
2023/05/16 09:17:08;;;;;;;0.10;0.10;;;;;;;;;;5071580;28;20026;-77
2023/05/16 09:19:37;;;;;;;0.20;0.20;;;;;;;;;;5068518;28;20115;-77
2023/05/16 09:22:03;;;;;;;0.20;0.20;;;;;;;;;;5066059;28;20453;-77
2023/05/16 09:24:28;;;;;;;0.20;0.20;;;;;;;;;;5066982;28;20089;-79
2023/05/16 09:26:54;;;;;;;0.20;0.20;;;;;;;;;;5068396;28;20029;-78
2023/05/16 09:29:21;;;;;;;0.20;0.20;;;;;;;;;;5064902;28;20016;-78
2023/05/16 09:31:48;;;;;;;0.30;0.30;;;;;;;;;;5067933;28;20075;-79
2023/05/16 09:34:13;;;;;;;0.20;0.20;;;;;;;;;;5068564;28;20039;-79
2023/05/16 09:36:39;;;;;;;0.20;0.20;;;;;;;;;;5067342;28;20036;-78
2023/05/16 09:39:05;;;;;;;0.20;0.20;;;;;;;;;;5067883;28;20506;-78
2023/05/16 09:41:34;;;;;;;0.30;0.30;;;;;;;;;;5068842;28;20069;-77
2023/05/16 09:44:02;;;;;;;0.20;0.20;;;;;;;;;;5068195;28;20162;-76
2023/05/16 09:46:28;;;;;;;0.20;0.20;;;;;;;;;;5068660;28;20105;-78
2023/05/16 09:48:53;;;;;;;0.20;0.20;;;;;;;;;;5068183;28;20080;-78
2023/05/16 09:51:22;;;;;;;0.20;0.20;;;;;;;;;;5049395;28;20043;-77
2023/05/16 09:53:47;;;;;;;0.20;0.20;;;;;;;;;;5057865;28;20496;-76
2023/05/16 09:56:13;;;;;;;0.20;0.20;;;;;;;;;;5055881;28;20036;-77
2023/05/16 09:58:40;;;;;;;0.45;0.32;;;;;;;;;;5057215;28;20484;-77
2023/05/16 10:01:06;;;;;;;0.20;0.20;;;;;;;;;;5062556;28;20111;-75
2023/05/16 10:03:33;;;;;;;0.20;0.20;;;;;;;;;;5067073;28;20032;-74
2023/05/16 10:05:59;;;;;;;0.20;0.20;;;;;;;;;;5067522;28;20044;-75
2023/05/16 10:08:25;;;;;;;0.30;0.30;;;;;;;;;;5066122;28;20490;-74
2023/05/16 10:10:52;;;;;;;0.20;0.20;;;;;;;;;;5068368;28;20101;-79
2023/05/16 10:13:19;;;;;;;0.20;0.20;;;;;;;;;;5055136;28;20043;-80
2023/05/16 10:15:45;;;;;;;0.20;0.20;;;;;;;;;;5071365;28;20123;-79
2023/05/16 10:18:13;;;;;;;0.20;0.20;;;;;;;;;;5067304;28;20454;-81
2023/05/16 10:20:42;;;;;;;0.55;0.55;;;;;;;;;;5068802;28;20057;-79
2023/05/16 10:23:08;;;;;;;0.30;0.30;;;;;;;;;;5067947;28;20037;-85
2023/05/16 10:25:37;;;;;;;0.20;0.20;;;;;;;;;;5067589;28;20043;-79
2023/05/16 10:28:03;;;;;;;0.20;0.20;;;;;;;;;;5067567;28;20038;-79
2023/05/16 10:30:30;;;;;;;0.20;0.20;;;;;;;;;;5068293;28;20036;-78
2023/05/16 10:32:56;;;;;;;0.20;0.20;;;;;;;;;;5067582;28;20082;-79
2023/05/16 10:35:22;;;;;;;0.20;0.20;;;;;;;;;;5050102;28;20032;-77
2023/05/16 10:37:48;;;;;;;0.20;0.20;;;;;;;;;;5067970;28;20467;-79
2023/05/16 10:40:15;;;;;;;0.30;0.30;;;;;;;;;;5068061;28;20068;-78
2023/05/16 10:42:43;;;;;;;0.20;0.20;;;;;;;;;;5068053;28;20111;-77
2023/05/16 10:45:15;;;;;;;0.20;0.20;;;;;;;;;;5067707;28;20075;-77
2023/05/16 10:47:49;;;;;;;0.20;0.20;;;;;;;;;;5067381;28;20509;-78
2023/05/16 10:50:29;;;;;;;0.30;0.30;;;;;;;;;;5069334;28;20041;-78
2023/05/16 10:52:54;;;;;;;0.20;0.20;;;;;;;;;;5071858;28;20474;-80
2023/05/16 10:55:20;;;;;;;0.20;0.20;;;;;;;;;;5071529;28;20072;-81
2023/05/16 10:57:46;;;;;;;0.20;0.20;;;;;;;;;;5071518;28;20025;-78
2023/05/16 11:00:20;;;;;;;0.38;0.32;;;;;;;;;;5070500;28;20036;-79
2023/05/16 11:02:45;;;;;;;0.20;0.20;;;;;;;;;;5073855;28;20515;-78
2023/05/16 11:05:12;;;;;;;0.20;0.20;;;;;;;;;;5079628;28;20028;-77
2023/05/16 11:07:38;;;;;;;0.20;0.20;;;;;;;;;;5070426;28;20128;-78
2023/05/16 11:10:06;;;;;;;0.20;0.20;;;;;;;;;;5071755;28;20095;-77
2023/05/16 11:12:58;;;;;;;5.22;0.50;;;;;;;;;;5066606;28;20035;-80
2023/05/16 11:15:25;;;;;;;0.20;0.20;;;;;;;;;;5050070;28;20631;-81
2023/05/16 11:18:02;;;;;;;0.32;0.30;;;;;;;;;;5069476;28;20497;-79
2023/05/16 11:20:31;;;;;;;0.30;0.30;;;;;;;;;;5069603;28;20036;-80
2023/05/16 11:22:56;;;;;;;;;;;;;;;;;;5069830;28;20074;-81
2023/05/16 11:25:34;;;;;;;0.20;0.20;;;;;;;;;;5068202;28;19916;-78
2023/05/16 11:27:59;;;;;;;0.38;0.38;;;;;;;;;;5049921;28;20788;-81
2023/05/16 11:30:25;;;;;;;0.20;0.20;;;;;;;;;;5067196;28;20291;-76
2023/05/16 11:32:50;;;;;;;0.25;0.25;;;;;;;;;;5052800;28;20342;-83
2023/05/16 11:35:17;;;;;;;1.45;0.47;;;;;;;;;;5069005;28;20085;-78
2023/05/16 11:37:43;;;;;;;0.22;0.22;;;;;;;;;;5069505;28;20024;-78
2023/05/16 11:40:10;;;;;;;0.40;0.40;;;;;;;;;;5051820;28;20044;-78
2023/05/16 11:42:43;;;;;;;0.75;0.43;;;;;;;;;;5069494;28;20471;-77
2023/05/16 11:45:08;;;;;;;0.20;0.20;;;;;;;;;;5054005;28;20127;-81
2023/05/16 11:47:37;;;;;;;0.25;0.25;;;;;;;;;;5051269;28;20108;-84
2023/05/16 11:50:05;;;;;;;0.20;0.20;;;;;;;;;;5066169;28;20036;-79
2023/05/16 11:52:31;;;;;;;0.20;0.20;;;;;;;;;;5069967;28;20021;-81
2023/05/16 11:55:00;;;;;;;3.45;0.32;;;;;;;;;;5070060;28;20032;-77
2023/05/16 11:57:26;;;;;;;2.05;0.30;;;;;;;;;;5068967;28;20028;-78
2023/05/16 11:59:52;;;;;;;0.30;0.30;;;;;;;;;;5070027;28;20035;-77
2023/05/16 12:02:17;;;;;;;0.20;0.20;;;;;;;;;;5069758;28;20070;-80
2023/05/16 12:04:45;;;;;;;0.17;0.17;;;;;;;;;;5070340;28;20481;-79
2023/05/16 12:07:11;;;;;;;0.30;0.30;;;;;;;;;;5052346;28;20043;-74
2023/05/16 12:09:36;;;;;;;0.20;0.20;;;;;;;;;;5049232;28;20423;-75
2023/05/16 12:12:04;;;;;;;0.95;0.50;;;;;;;;;;5030967;28;20067;-74
2023/05/16 12:14:30;;;;;;;0.38;0.25;;;;;;;;;;5049487;28;20044;-74
2023/05/16 12:16:55;;;;;;;0.82;0.50;;;;;;;;;;5032470;28;20546;-75
2023/05/16 12:19:21;;;;;;;1.40;0.50;;;;;;;;;;5049582;28;20039;-73
2023/05/16 12:21:47;;;;;;;0.52;0.40;;;;;;;;;;5066866;28;20036;-74
2023/05/16 12:24:12;;;;;;;0.82;0.25;;;;;;;;;;5044629;28;20033;-74
2023/05/16 12:26:39;;;;;;;1.05;0.40;;;;;;;;;;5047515;28;20527;-73
2023/05/16 12:29:05;;;;;;;0.20;0.20;;;;;;;;;;5014567;28;20047;-74
2023/05/16 12:31:34;;;;;;;0.30;0.30;;;;;;;;;;5046829;28;20028;-73
2023/05/16 12:34:00;;;;;;;1.10;0.52;;;;;;;;;;5061750;28;20025;-77
2023/05/16 12:36:25;;;;;;;0.20;0.20;;;;;;;;;;5047796;28;20475;-74
2023/05/16 12:38:51;;;;;;;0.22;0.22;;;;;;;;;;5047913;28;20024;-74
2023/05/16 12:41:20;;;;;;;0.57;0.40;;;;;;;;;;5066141;28;20029;-75
2023/05/16 12:43:46;;;;;;;0.30;0.30;;;;;;;;;;5047386;28;20094;-75
2023/05/16 12:46:11;;;;;;;0.43;0.40;;;;;;;;;;5065370;28;20406;-74
2023/05/16 12:48:38;;;;;;;4.38;0.40;;;;;;;;;;5067235;28;20082;-73
2023/05/16 12:51:17;;;;;;;0.20;0.20;;;;;;;;;;5069428;28;20539;-73
2023/05/16 12:53:48;;;;;;;0.87;0.33;;;;;;;;;;5035196;28;20432;-74
2023/05/16 12:56:14;;;;;;;0.40;0.25;;;;;;;;;;5051904;28;20591;-72
2023/05/16 12:58:41;;;;;;;0.65;0.65;;;;;;;;;;5067704;28;20162;-74
2023/05/16 13:01:07;;;;;;;0.28;0.28;;;;;;;;;;5066428;28;20028;-73
2023/05/16 13:03:33;;;;;;;0.20;0.20;;;;;;;;;;5030754;28;20029;-74
2023/05/16 13:05:59;;;;;;;0.20;0.20;;;;;;;;;;5079048;28;20079;-73
2023/05/16 13:08:26;;;;;;;0.30;0.30;;;;;;;;;;5052761;28;20495;-74
2023/05/16 13:10:51;;;;;;;0.57;0.30;;;;;;;;;;5050529;28;20742;-74
2023/05/16 13:13:17;;;;;;;0.32;0.32;;;;;;;;;;5070011;28;20078;-72
2023/05/16 13:15:43;;;;;;;1.30;0.50;;;;;;;;;;5054787;28;20130;-73
2023/05/16 13:18:10;;;;;;;0.77;0.50;;;;;;;;;;5060726;28;20032;-74
2023/05/16 13:20:35;;;;;;;2.28;0.40;;;;;;;;;;5072393;28;20120;-75
2023/05/16 13:23:01;;;;;;;0.20;0.20;;;;;;;;;;5056290;28;20515;-72
2023/05/16 13:25:27;;;;;;;0.15;0.15;;;;;;;;;;5078380;28;20036;-73
2023/05/16 13:27:53;;;;;;;0.28;0.28;;;;;;;;;;5074828;28;20557;-73
2023/05/16 13:30:18;;;;;;;0.20;0.20;;;;;;;;;;5039742;28;20500;-72
2023/05/16 13:32:44;;;;;;;0.15;0.15;;;;;;;;;;5039419;28;20050;-73
2023/05/16 13:35:09;;;;;;;0.30;0.30;;;;;;;;;;5059332;28;20036;-75
2023/05/16 13:37:36;;;;;;;1.38;0.40;;;;;;;;;;5050168;28;20043;-73
2023/05/16 13:40:03;;;;;;;1.17;0.55;;;;;;;;;;5039708;28;20037;-73
2023/05/16 13:42:28;;;;;;;2.63;0.50;;;;;;;;;;5075072;28;20047;-72
2023/05/16 13:44:54;;;;;;;0.20;0.20;;;;;;;;;;5035640;28;20033;-73
2023/05/16 13:47:19;;;;;;;1.42;0.68;;;;;;;;;;5030859;28;20075;-72
2023/05/16 13:49:46;;;;;;;1.48;0.43;;;;;;;;;;5048607;28;20045;-74
2023/05/16 13:52:12;;;;;;;0.65;0.20;;;;;;;;;;5049364;28;20029;-74
2023/05/16 13:54:39;;;;;;;0.40;0.35;;;;;;;;;;5044493;28;20047;-74
2023/05/16 13:57:06;;;;;;;0.90;0.32;;;;;;;;;;5041625;28;20020;-75
2023/05/16 13:59:32;;;;;;;0.73;0.40;;;;;;;;;;5069150;28;20028;-70
2023/05/16 14:01:58;;;;;;;0.50;0.30;;;;;;;;;;5068255;28;20024;-70
2023/05/16 14:04:27;;;;;;;0.43;0.43;;;;;;;;;;5067394;28;20044;-73
2023/05/16 14:06:56;;;;;;;0.77;0.55;;;;;;;;;;5075479;28;20032;-74
2023/05/16 14:09:21;;;;;;;3.53;1.27;;;;;;;;;;5087672;28;20510;-71
2023/05/16 14:11:47;;;;;;;0.20;0.20;;;;;;;;;;5069407;28;20028;-74
2023/05/16 14:14:12;;;;;;;6.35;1.08;;;;;;;;;;5072593;28;20114;-70
2023/05/16 14:16:43;;;;;;;1.17;0.40;;;;;;;;;;5067536;28;20037;-73
2023/05/16 14:19:10;;;;;;;0.20;0.20;;;;;;;;;;5049334;28;20035;-74
2023/05/16 14:21:36;;;;;;;0.20;0.20;;;;;;;;;;5060502;28;20090;-72
2023/05/16 14:24:01;;;;;;;0.30;0.30;;;;;;;;;;5030796;28;20480;-70
2023/05/16 14:26:27;;;;;;;1.35;0.60;;;;;;;;;;5061074;28;20104;-77
2023/05/16 14:28:52;;;;;;;0.68;0.40;;;;;;;;;;5053171;28;20048;-74
2023/05/16 14:31:17;;;;;;;0.20;0.20;;;;;;;;;;5071824;28;20036;-74
2023/05/16 14:33:43;;;;;;;0.20;0.20;;;;;;;;;;5069391;28;20455;-71
2023/05/16 14:36:08;;;;;;;0.32;0.32;;;;;;;;;;5047731;28;20056;-73
2023/05/16 14:38:34;;;;;;;0.25;0.25;;;;;;;;;;5069753;28;20040;-73